sensor_id;sensor_type;location;lat;lon;timestamp;temperature;humidity
12309;DHT22;6217;48.150;17.142;2023-03-14T00:02:16;9.80;72.10
12309;DHT22;6217;48.150;17.142;2023-03-14T00:06:22;9.90;72.00
12309;DHT22;6217;48.150;17.142;2023-03-14T00:10:28;10.00;71.60
12309;DHT22;6217;48.150;17.142;2023-03-14T00:14:34;10.10;71.10
12309;DHT22;6217;48.150;17.142;2023-03-14T00:18:40;10.10;70.90
12309;DHT22;6217;48.150;17.142;2023-03-14T00:22:46;10.10;70.90
12309;DHT22;6217;48.150;17.142;2023-03-14T00:26:52;10.20;71.10
12309;DHT22;6217;48.150;17.142;2023-03-14T00:30:58;10.10;71.90
12309;DHT22;6217;48.150;17.142;2023-03-14T00:35:04;10.00;72.00
12309;DHT22;6217;48.150;17.142;2023-03-14T00:39:10;9.90;72.00
12309;DHT22;6217;48.150;17.142;2023-03-14T00:43:17;9.90;72.00
12309;DHT22;6217;48.150;17.142;2023-03-14T00:47:23;9.80;72.10
12309;DHT22;6217;48.150;17.142;2023-03-14T00:51:29;9.80;72.70
12309;DHT22;6217;48.150;17.142;2023-03-14T00:55:39;9.70;73.00
12309;DHT22;6217;48.150;17.142;2023-03-14T00:59:46;9.60;73.40
12309;DHT22;6217;48.150;17.142;2023-03-14T01:03:53;9.60;73.70
12309;DHT22;6217;48.150;17.142;2023-03-14T01:08:00;9.50;74.00
12309;DHT22;6217;48.150;17.142;2023-03-14T01:12:06;9.50;73.80
12309;DHT22;6217;48.150;17.142;2023-03-14T01:16:13;9.50;73.80
12309;DHT22;6217;48.150;17.142;2023-03-14T01:20:19;9.40;73.70
12309;DHT22;6217;48.150;17.142;2023-03-14T01:24:25;9.50;73.50
12309;DHT22;6217;48.150;17.142;2023-03-14T01:28:31;9.40;73.50
12309;DHT22;6217;48.150;17.142;2023-03-14T01:32:37;9.40;73.90
12309;DHT22;6217;48.150;17.142;2023-03-14T01:36:43;9.30;73.90
12309;DHT22;6217;48.150;17.142;2023-03-14T01:40:50;9.40;74.00
12309;DHT22;6217;48.150;17.142;2023-03-14T01:45:01;9.30;74.30
12309;DHT22;6217;48.150;17.142;2023-03-14T01:49:27;9.30;74.90
12309;DHT22;6217;48.150;17.142;2023-03-14T01:53:46;9.30;74.30
12309;DHT22;6217;48.150;17.142;2023-03-14T01:58:01;9.30;74.10
12309;DHT22;6217;48.150;17.142;2023-03-14T02:02:12;9.30;74.20
12309;DHT22;6217;48.150;17.142;2023-03-14T02:06:21;9.20;74.40
12309;DHT22;6217;48.150;17.142;2023-03-14T02:10:35;9.10;74.50
12309;DHT22;6217;48.150;17.142;2023-03-14T02:14:44;9.00;74.90
12309;DHT22;6217;48.150;17.142;2023-03-14T02:19:07;9.00;75.10
12309;DHT22;6217;48.150;17.142;2023-03-14T02:28:15;9.00;75.30
12309;DHT22;6217;48.150;17.142;2023-03-14T02:32:24;8.90;75.40
12309;DHT22;6217;48.150;17.142;2023-03-14T02:36:31;8.90;75.40
12309;DHT22;6217;48.150;17.142;2023-03-14T02:40:37;8.90;75.50
12309;DHT22;6217;48.150;17.142;2023-03-14T02:49:29;8.90;75.70
12309;DHT22;6217;48.150;17.142;2023-03-14T02:53:37;8.80;75.70
12309;DHT22;6217;48.150;17.142;2023-03-14T02:57:50;8.90;75.80
12309;DHT22;6217;48.150;17.142;2023-03-14T03:01:56;8.90;75.90
12309;DHT22;6217;48.150;17.142;2023-03-14T03:06:04;8.90;76.00
12309;DHT22;6217;48.150;17.142;2023-03-14T03:10:11;8.90;75.90
12309;DHT22;6217;48.150;17.142;2023-03-14T03:14:18;9.00;75.90
12309;DHT22;6217;48.150;17.142;2023-03-14T03:18:24;9.00;75.90
12309;DHT22;6217;48.150;17.142;2023-03-14T03:22:30;9.00;76.00
12309;DHT22;6217;48.150;17.142;2023-03-14T03:26:36;9.10;76.40
12309;DHT22;6217;48.150;17.142;2023-03-14T03:30:45;9.20;75.50
12309;DHT22;6217;48.150;17.142;2023-03-14T03:34:52;9.20;75.40
12309;DHT22;6217;48.150;17.142;2023-03-14T03:38:58;9.30;75.40
12309;DHT22;6217;48.150;17.142;2023-03-14T03:43:04;9.30;75.30
12309;DHT22;6217;48.150;17.142;2023-03-14T03:47:14;9.30;75.30
12309;DHT22;6217;48.150;17.142;2023-03-14T03:51:20;9.30;75.40
12309;DHT22;6217;48.150;17.142;2023-03-14T03:55:27;9.30;75.40
12309;DHT22;6217;48.150;17.142;2023-03-14T03:59:33;9.30;75.40
12309;DHT22;6217;48.150;17.142;2023-03-14T04:03:39;9.30;75.40
12309;DHT22;6217;48.150;17.142;2023-03-14T04:07:46;9.30;75.40
12309;DHT22;6217;48.150;17.142;2023-03-14T04:11:56;9.30;75.40
12309;DHT22;6217;48.150;17.142;2023-03-14T04:16:22;9.20;75.50
12309;DHT22;6217;48.150;17.142;2023-03-14T04:20:34;9.30;75.40
12309;DHT22;6217;48.150;17.142;2023-03-14T04:24:41;9.30;75.40
12309;DHT22;6217;48.150;17.142;2023-03-14T04:28:47;9.30;75.30
12309;DHT22;6217;48.150;17.142;2023-03-14T04:32:53;9.40;75.10
12309;DHT22;6217;48.150;17.142;2023-03-14T04:37:03;9.40;75.20
12309;DHT22;6217;48.150;17.142;2023-03-14T04:41:15;9.40;75.30
12309;DHT22;6217;48.150;17.142;2023-03-14T04:45:21;9.40;75.40
12309;DHT22;6217;48.150;17.142;2023-03-14T04:49:27;9.40;75.20
12309;DHT22;6217;48.150;17.142;2023-03-14T04:53:33;9.40;75.10
12309;DHT22;6217;48.150;17.142;2023-03-14T04:57:44;9.40;75.20
12309;DHT22;6217;48.150;17.142;2023-03-14T05:01:50;9.50;75.20
12309;DHT22;6217;48.150;17.142;2023-03-14T05:06:04;9.50;74.90
12309;DHT22;6217;48.150;17.142;2023-03-14T05:10:33;9.40;74.90
12309;DHT22;6217;48.150;17.142;2023-03-14T05:15:08;9.50;74.80
12309;DHT22;6217;48.150;17.142;2023-03-14T05:19:14;9.50;74.60
12309;DHT22;6217;48.150;17.142;2023-03-14T05:23:55;9.60;74.70
12309;DHT22;6217;48.150;17.142;2023-03-14T05:28:34;9.60;74.50
12309;DHT22;6217;48.150;17.142;2023-03-14T05:32:49;9.50;74.30
12309;DHT22;6217;48.150;17.142;2023-03-14T05:37:03;9.60;74.10
12309;DHT22;6217;48.150;17.142;2023-03-14T05:41:19;9.60;74.00
12309;DHT22;6217;48.150;17.142;2023-03-14T05:45:51;9.70;74.10
12309;DHT22;6217;48.150;17.142;2023-03-14T05:50:12;9.70;74.00
12309;DHT22;6217;48.150;17.142;2023-03-14T05:54:32;9.80;73.70
12309;DHT22;6217;48.150;17.142;2023-03-14T05:59:04;9.90;73.30
12309;DHT22;6217;48.150;17.142;2023-03-14T06:03:45;10.00;73.00
12309;DHT22;6217;48.150;17.142;2023-03-14T06:07:51;10.10;72.70
12309;DHT22;6217;48.150;17.142;2023-03-14T06:11:57;10.00;72.70
12309;DHT22;6217;48.150;17.142;2023-03-14T06:16:04;10.10;73.00
12309;DHT22;6217;48.150;17.142;2023-03-14T06:20:10;10.10;72.70
12309;DHT22;6217;48.150;17.142;2023-03-14T06:24:17;10.10;72.90
12309;DHT22;6217;48.150;17.142;2023-03-14T06:28:26;10.10;73.10
12309;DHT22;6217;48.150;17.142;2023-03-14T06:32:38;10.30;72.80
12309;DHT22;6217;48.150;17.142;2023-03-14T06:36:48;10.40;73.10
12309;DHT22;6217;48.150;17.142;2023-03-14T06:40:54;10.50;72.00
12309;DHT22;6217;48.150;17.142;2023-03-14T06:45:10;10.70;71.80
12309;DHT22;6217;48.150;17.142;2023-03-14T06:49:16;11.00;71.60
12309;DHT22;6217;48.150;17.142;2023-03-14T06:53:23;12.20;71.10
12309;DHT22;6217;48.150;17.142;2023-03-14T06:57:30;14.50;65.90
12309;DHT22;6217;48.150;17.142;2023-03-14T07:01:36;16.00;59.30
12309;DHT22;6217;48.150;17.142;2023-03-14T07:05:49;14.70;61.10
12309;DHT22;6217;48.150;17.142;2023-03-14T07:09:55;14.10;63.50
12309;DHT22;6217;48.150;17.142;2023-03-14T07:14:01;14.00;64.10
12309;DHT22;6217;48.150;17.142;2023-03-14T07:18:07;14.10;64.00
12309;DHT22;6217;48.150;17.142;2023-03-14T07:22:13;14.20;63.70
12309;DHT22;6217;48.150;17.142;2023-03-14T07:26:19;14.40;63.40
12309;DHT22;6217;48.150;17.142;2023-03-14T07:30:29;14.60;62.80
12309;DHT22;6217;48.150;17.142;2023-03-14T07:34:37;14.70;62.80
12309;DHT22;6217;48.150;17.142;2023-03-14T07:38:43;15.00;62.10
12309;DHT22;6217;48.150;17.142;2023-03-14T07:42:49;15.30;61.50
12309;DHT22;6217;48.150;17.142;2023-03-14T07:47:04;15.60;60.90
12309;DHT22;6217;48.150;17.142;2023-03-14T07:51:10;16.70;59.60
12309;DHT22;6217;48.150;17.142;2023-03-14T07:55:15;17.40;56.90
12309;DHT22;6217;48.150;17.142;2023-03-14T07:59:21;17.10;56.70
12309;DHT22;6217;48.150;17.142;2023-03-14T08:03:27;16.60;57.40
12309;DHT22;6217;48.150;17.142;2023-03-14T08:07:33;16.00;59.00
12309;DHT22;6217;48.150;17.142;2023-03-14T08:11:39;15.80;60.20
12309;DHT22;6217;48.150;17.142;2023-03-14T08:15:48;15.60;60.30
12309;DHT22;6217;48.150;17.142;2023-03-14T08:19:54;15.20;60.80
12309;DHT22;6217;48.150;17.142;2023-03-14T08:24:00;15.10;61.10
12309;DHT22;6217;48.150;17.142;2023-03-14T08:28:06;15.10;61.60
12309;DHT22;6217;48.150;17.142;2023-03-14T08:32:12;15.30;61.50
12309;DHT22;6217;48.150;17.142;2023-03-14T08:36:19;15.70;60.80
12309;DHT22;6217;48.150;17.142;2023-03-14T08:40:25;15.80;60.40
12309;DHT22;6217;48.150;17.142;2023-03-14T08:44:31;15.90;60.20
12309;DHT22;6217;48.150;17.142;2023-03-14T08:48:37;15.90;59.90
12309;DHT22;6217;48.150;17.142;2023-03-14T08:52:43;16.00;59.80
12309;DHT22;6217;48.150;17.142;2023-03-14T08:56:49;16.00;59.60
12309;DHT22;6217;48.150;17.142;2023-03-14T09:00:55;15.90;59.70
12309;DHT22;6217;48.150;17.142;2023-03-14T09:05:01;15.90;59.70
12309;DHT22;6217;48.150;17.142;2023-03-14T09:09:07;15.80;60.10
12309;DHT22;6217;48.150;17.142;2023-03-14T09:13:14;15.80;60.30
12309;DHT22;6217;48.150;17.142;2023-03-14T09:17:19;15.60;60.20
12309;DHT22;6217;48.150;17.142;2023-03-14T09:21:26;15.50;60.60
12309;DHT22;6217;48.150;17.142;2023-03-14T09:25:32;15.60;60.50
12309;DHT22;6217;48.150;17.142;2023-03-14T09:29:38;15.90;60.00
12309;DHT22;6217;48.150;17.142;2023-03-14T09:33:44;16.20;59.40
12309;DHT22;6217;48.150;17.142;2023-03-14T09:37:50;16.30;58.80
12309;DHT22;6217;48.150;17.142;2023-03-14T09:41:57;16.40;59.00
12309;DHT22;6217;48.150;17.142;2023-03-14T09:46:09;16.50;58.80
12309;DHT22;6217;48.150;17.142;2023-03-14T09:50:16;16.50;58.70
12309;DHT22;6217;48.150;17.142;2023-03-14T09:54:36;16.60;58.80
12309;DHT22;6217;48.150;17.142;2023-03-14T09:58:45;17.00;58.50
12309;DHT22;6217;48.150;17.142;2023-03-14T10:02:57;17.30;58.00
12309;DHT22;6217;48.150;17.142;2023-03-14T10:07:13;17.50;57.70
12309;DHT22;6217;48.150;17.142;2023-03-14T10:11:21;17.50;57.60
12309;DHT22;6217;48.150;17.142;2023-03-14T10:15:32;17.40;57.80
12309;DHT22;6217;48.150;17.142;2023-03-14T10:19:57;17.20;57.90
12309;DHT22;6217;48.150;17.142;2023-03-14T10:24:26;17.00;58.50
12309;DHT22;6217;48.150;17.142;2023-03-14T10:32:51;17.10;58.90
12309;DHT22;6217;48.150;17.142;2023-03-14T10:37:12;17.40;58.80
12309;DHT22;6217;48.150;17.142;2023-03-14T10:41:30;17.70;58.40
12309;DHT22;6217;48.150;17.142;2023-03-14T10:45:40;17.70;57.80
12309;DHT22;6217;48.150;17.142;2023-03-14T10:49:48;17.70;57.40
12309;DHT22;6217;48.150;17.142;2023-03-14T10:54:03;17.50;57.40
12309;DHT22;6217;48.150;17.142;2023-03-14T10:58:22;17.20;57.40
12309;DHT22;6217;48.150;17.142;2023-03-14T11:02:58;16.70;58.40
12309;DHT22;6217;48.150;17.142;2023-03-14T11:11:32;16.00;59.50
12309;DHT22;6217;48.150;17.142;2023-03-14T11:20:29;15.90;60.20
12309;DHT22;6217;48.150;17.142;2023-03-14T11:30:02;15.50;60.30
12309;DHT22;6217;48.150;17.142;2023-03-14T11:34:36;15.40;60.50
12309;DHT22;6217;48.150;17.142;2023-03-14T11:38:59;15.20;60.90
12309;DHT22;6217;48.150;17.142;2023-03-14T11:47:43;15.10;61.10
12309;DHT22;6217;48.150;17.142;2023-03-14T11:51:53;15.10;61.60
12309;DHT22;6217;48.150;17.142;2023-03-14T11:56:02;15.00;61.40
12309;DHT22;6217;48.150;17.142;2023-03-14T12:08:58;15.00;62.20
12309;DHT22;6217;48.150;17.142;2023-03-14T12:13:07;15.10;62.30
12309;DHT22;6217;48.150;17.142;2023-03-14T12:17:41;15.10;62.80
12309;DHT22;6217;48.150;17.142;2023-03-14T12:21:59;14.90;64.10
12309;DHT22;6217;48.150;17.142;2023-03-14T12:26:13;14.80;65.00
12309;DHT22;6217;48.150;17.142;2023-03-14T12:34:45;14.70;66.80
12309;DHT22;6217;48.150;17.142;2023-03-14T12:39:04;14.60;67.90
12309;DHT22;6217;48.150;17.142;2023-03-14T12:43:32;14.30;69.60
12309;DHT22;6217;48.150;17.142;2023-03-14T12:51:45;14.10;71.40
12309;DHT22;6217;48.150;17.142;2023-03-14T13:00:19;14.10;72.70
12309;DHT22;6217;48.150;17.142;2023-03-14T13:04:45;14.00;72.60
12309;DHT22;6217;48.150;17.142;2023-03-14T13:13:36;14.00;73.20
12309;DHT22;6217;48.150;17.142;2023-03-14T13:17:48;14.00;73.20
12309;DHT22;6217;48.150;17.142;2023-03-14T13:22:05;13.90;73.60
12309;DHT22;6217;48.150;17.142;2023-03-14T13:26:18;13.70;74.40
12309;DHT22;6217;48.150;17.142;2023-03-14T13:30:28;13.60;74.50
12309;DHT22;6217;48.150;17.142;2023-03-14T13:34:41;13.60;74.50
12309;DHT22;6217;48.150;17.142;2023-03-14T13:38:56;13.50;74.20
12309;DHT22;6217;48.150;17.142;2023-03-14T13:43:17;13.40;74.40
12309;DHT22;6217;48.150;17.142;2023-03-14T13:47:25;13.30;74.50
12309;DHT22;6217;48.150;17.142;2023-03-14T13:51:32;13.40;74.20
12309;DHT22;6217;48.150;17.142;2023-03-14T13:55:38;13.30;74.30
12309;DHT22;6217;48.150;17.142;2023-03-14T13:59:58;13.20;74.50
12309;DHT22;6217;48.150;17.142;2023-03-14T14:04:18;13.20;74.90
12309;DHT22;6217;48.150;17.142;2023-03-14T14:08:27;13.20;74.80
12309;DHT22;6217;48.150;17.142;2023-03-14T14:12:43;13.10;74.90
12309;DHT22;6217;48.150;17.142;2023-03-14T14:16:56;13.00;75.50
12309;DHT22;6217;48.150;17.142;2023-03-14T14:21:04;12.90;75.70
12309;DHT22;6217;48.150;17.142;2023-03-14T14:25:13;12.80;76.20
12309;DHT22;6217;48.150;17.142;2023-03-14T14:29:27;12.80;76.30
12309;DHT22;6217;48.150;17.142;2023-03-14T14:34:21;12.70;76.80
12309;DHT22;6217;48.150;17.142;2023-03-14T14:38:12;12.60;77.70
12309;DHT22;6217;48.150;17.142;2023-03-14T14:42:26;12.50;78.20
12309;DHT22;6217;48.150;17.142;2023-03-14T14:46:36;12.40;78.40
12309;DHT22;6217;48.150;17.142;2023-03-14T14:50:55;12.40;78.60
12309;DHT22;6217;48.150;17.142;2023-03-14T14:55:19;12.30;79.00
12309;DHT22;6217;48.150;17.142;2023-03-14T14:59:27;12.30;78.90
12309;DHT22;6217;48.150;17.142;2023-03-14T15:03:34;12.30;79.20
12309;DHT22;6217;48.150;17.142;2023-03-14T15:07:40;12.30;79.30
12309;DHT22;6217;48.150;17.142;2023-03-14T15:11:47;12.30;79.60
12309;DHT22;6217;48.150;17.142;2023-03-14T15:15:54;12.20;79.70
12309;DHT22;6217;48.150;17.142;2023-03-14T15:20:03;12.30;79.70
12309;DHT22;6217;48.150;17.142;2023-03-14T15:24:10;12.30;79.60
12309;DHT22;6217;48.150;17.142;2023-03-14T15:28:25;12.30;79.80
12309;DHT22;6217;48.150;17.142;2023-03-14T15:32:33;12.20;80.10
12309;DHT22;6217;48.150;17.142;2023-03-14T15:36:39;12.20;80.10
12309;DHT22;6217;48.150;17.142;2023-03-14T15:40:45;12.30;80.30
12309;DHT22;6217;48.150;17.142;2023-03-14T15:44:51;12.30;80.20
12309;DHT22;6217;48.150;17.142;2023-03-14T15:48:57;12.30;80.30
12309;DHT22;6217;48.150;17.142;2023-03-14T15:53:03;12.20;80.50
12309;DHT22;6217;48.150;17.142;2023-03-14T15:57:10;12.20;80.50
12309;DHT22;6217;48.150;17.142;2023-03-14T16:01:16;12.20;80.80
12309;DHT22;6217;48.150;17.142;2023-03-14T16:05:22;12.30;81.00
12309;DHT22;6217;48.150;17.142;2023-03-14T16:09:28;12.20;81.10
12309;DHT22;6217;48.150;17.142;2023-03-14T16:13:34;12.20;81.70
12309;DHT22;6217;48.150;17.142;2023-03-14T16:17:40;12.10;82.20
12309;DHT22;6217;48.150;17.142;2023-03-14T16:21:48;12.10;82.20
12309;DHT22;6217;48.150;17.142;2023-03-14T16:25:54;12.10;82.10
12309;DHT22;6217;48.150;17.142;2023-03-14T16:30:01;12.10;82.20
12309;DHT22;6217;48.150;17.142;2023-03-14T16:34:09;11.90;82.90
12309;DHT22;6217;48.150;17.142;2023-03-14T16:38:15;12.00;83.10
12309;DHT22;6217;48.150;17.142;2023-03-14T16:42:22;12.00;83.00
12309;DHT22;6217;48.150;17.142;2023-03-14T16:46:28;12.10;82.90
12309;DHT22;6217;48.150;17.142;2023-03-14T16:50:34;12.00;83.10
12309;DHT22;6217;48.150;17.142;2023-03-14T16:54:41;11.80;83.70
12309;DHT22;6217;48.150;17.142;2023-03-14T16:58:48;11.80;84.20
12309;DHT22;6217;48.150;17.142;2023-03-14T17:02:55;11.80;84.70
12309;DHT22;6217;48.150;17.142;2023-03-14T17:07:00;11.80;84.60
12309;DHT22;6217;48.150;17.142;2023-03-14T17:11:07;11.80;84.80
12309;DHT22;6217;48.150;17.142;2023-03-14T17:15:14;11.80;84.80
12309;DHT22;6217;48.150;17.142;2023-03-14T17:19:20;11.80;84.80
12309;DHT22;6217;48.150;17.142;2023-03-14T17:23:28;11.70;85.00
12309;DHT22;6217;48.150;17.142;2023-03-14T17:27:35;11.70;85.20
12309;DHT22;6217;48.150;17.142;2023-03-14T17:31:41;11.70;85.40
12309;DHT22;6217;48.150;17.142;2023-03-14T17:35:47;11.70;85.60
12309;DHT22;6217;48.150;17.142;2023-03-14T17:39:53;11.70;86.00
12309;DHT22;6217;48.150;17.142;2023-03-14T17:43:59;11.80;86.20
12309;DHT22;6217;48.150;17.142;2023-03-14T17:48:05;11.70;86.40
12309;DHT22;6217;48.150;17.142;2023-03-14T17:52:11;11.70;86.70
12309;DHT22;6217;48.150;17.142;2023-03-14T17:56:17;11.70;86.90
12309;DHT22;6217;48.150;17.142;2023-03-14T18:00:23;11.70;87.20
12309;DHT22;6217;48.150;17.142;2023-03-14T18:04:29;11.70;87.10
12309;DHT22;6217;48.150;17.142;2023-03-14T18:08:37;11.70;86.90
12309;DHT22;6217;48.150;17.142;2023-03-14T18:12:44;11.70;87.20
12309;DHT22;6217;48.150;17.142;2023-03-14T18:16:50;11.80;87.00
12309;DHT22;6217;48.150;17.142;2023-03-14T18:20:58;11.80;86.80
12309;DHT22;6217;48.150;17.142;2023-03-14T18:25:05;11.90;86.90
12309;DHT22;6217;48.150;17.142;2023-03-14T18:29:12;11.90;87.20
12309;DHT22;6217;48.150;17.142;2023-03-14T18:33:20;11.90;87.30
12309;DHT22;6217;48.150;17.142;2023-03-14T18:37:26;12.00;87.10
12309;DHT22;6217;48.150;17.142;2023-03-14T18:41:33;11.90;87.20
12309;DHT22;6217;48.150;17.142;2023-03-14T18:45:39;12.00;87.50
12309;DHT22;6217;48.150;17.142;2023-03-14T18:49:45;11.90;87.50
12309;DHT22;6217;48.150;17.142;2023-03-14T18:53:51;11.80;87.70
12309;DHT22;6217;48.150;17.142;2023-03-14T18:57:59;11.90;87.90
12309;DHT22;6217;48.150;17.142;2023-03-14T19:02:05;11.90;87.80
12309;DHT22;6217;48.150;17.142;2023-03-14T19:06:12;12.00;87.50
12309;DHT22;6217;48.150;17.142;2023-03-14T19:10:19;12.00;87.20
12309;DHT22;6217;48.150;17.142;2023-03-14T19:14:25;11.90;87.30
12309;DHT22;6217;48.150;17.142;2023-03-14T19:18:31;11.80;88.30
12309;DHT22;6217;48.150;17.142;2023-03-14T19:22:37;11.80;87.90
12309;DHT22;6217;48.150;17.142;2023-03-14T19:26:43;11.90;87.90
12309;DHT22;6217;48.150;17.142;2023-03-14T19:30:50;11.90;87.90
12309;DHT22;6217;48.150;17.142;2023-03-14T19:34:59;11.80;87.80
12309;DHT22;6217;48.150;17.142;2023-03-14T19:39:05;11.90;88.00
12309;DHT22;6217;48.150;17.142;2023-03-14T19:43:11;11.90;87.90
12309;DHT22;6217;48.150;17.142;2023-03-14T19:47:17;11.80;88.10
12309;DHT22;6217;48.150;17.142;2023-03-14T19:51:23;11.80;88.10
12309;DHT22;6217;48.150;17.142;2023-03-14T19:55:29;11.90;88.10
12309;DHT22;6217;48.150;17.142;2023-03-14T19:59:39;11.80;88.10
12309;DHT22;6217;48.150;17.142;2023-03-14T20:03:45;11.80;88.50
12309;DHT22;6217;48.150;17.142;2023-03-14T20:07:51;11.70;88.30
12309;DHT22;6217;48.150;17.142;2023-03-14T20:12:00;11.80;88.20
12309;DHT22;6217;48.150;17.142;2023-03-14T20:16:07;11.80;88.00
12309;DHT22;6217;48.150;17.142;2023-03-14T20:20:17;11.80;87.80
12309;DHT22;6217;48.150;17.142;2023-03-14T20:24:23;11.80;87.70
12309;DHT22;6217;48.150;17.142;2023-03-14T20:28:29;11.80;87.40
12309;DHT22;6217;48.150;17.142;2023-03-14T20:32:36;11.80;86.80
12309;DHT22;6217;48.150;17.142;2023-03-14T20:36:42;11.90;86.40
12309;DHT22;6217;48.150;17.142;2023-03-14T20:40:49;11.90;85.90
12309;DHT22;6217;48.150;17.142;2023-03-14T20:44:55;11.80;85.50
12309;DHT22;6217;48.150;17.142;2023-03-14T20:49:01;11.70;85.40
12309;DHT22;6217;48.150;17.142;2023-03-14T20:53:07;11.60;85.00
12309;DHT22;6217;48.150;17.142;2023-03-14T20:57:13;11.50;84.90
12309;DHT22;6217;48.150;17.142;2023-03-14T21:01:21;11.50;84.70
12309;DHT22;6217;48.150;17.142;2023-03-14T21:05:27;11.50;84.50
12309;DHT22;6217;48.150;17.142;2023-03-14T21:09:33;11.40;84.30
12309;DHT22;6217;48.150;17.142;2023-03-14T21:13:39;11.40;84.20
12309;DHT22;6217;48.150;17.142;2023-03-14T21:17:44;11.40;84.00
12309;DHT22;6217;48.150;17.142;2023-03-14T21:21:51;11.40;83.90
12309;DHT22;6217;48.150;17.142;2023-03-14T21:25:56;11.40;83.70
12309;DHT22;6217;48.150;17.142;2023-03-14T21:30:03;11.40;83.10
12309;DHT22;6217;48.150;17.142;2023-03-14T21:34:09;11.40;82.60
12309;DHT22;6217;48.150;17.142;2023-03-14T21:38:15;11.40;82.00
12309;DHT22;6217;48.150;17.142;2023-03-14T21:42:22;11.30;81.30
12309;DHT22;6217;48.150;17.142;2023-03-14T21:46:28;11.30;80.40
12309;DHT22;6217;48.150;17.142;2023-03-14T21:50:34;11.20;79.90
12309;DHT22;6217;48.150;17.142;2023-03-14T21:54:40;11.20;79.30
12309;DHT22;6217;48.150;17.142;2023-03-14T21:58:47;11.30;78.70
12309;DHT22;6217;48.150;17.142;2023-03-14T22:02:53;11.30;78.30
12309;DHT22;6217;48.150;17.142;2023-03-14T22:07:06;11.30;77.80
12309;DHT22;6217;48.150;17.142;2023-03-14T22:11:14;11.30;77.60
12309;DHT22;6217;48.150;17.142;2023-03-14T22:15:19;11.20;76.90
12309;DHT22;6217;48.150;17.142;2023-03-14T22:19:26;11.10;76.50
12309;DHT22;6217;48.150;17.142;2023-03-14T22:23:32;11.00;75.90
12309;DHT22;6217;48.150;17.142;2023-03-14T22:27:38;10.90;75.50
12309;DHT22;6217;48.150;17.142;2023-03-14T22:31:44;10.80;75.00
12309;DHT22;6217;48.150;17.142;2023-03-14T22:35:51;10.80;74.60
12309;DHT22;6217;48.150;17.142;2023-03-14T22:39:57;10.80;74.60
12309;DHT22;6217;48.150;17.142;2023-03-14T22:44:03;10.80;74.10
12309;DHT22;6217;48.150;17.142;2023-03-14T22:48:16;10.70;73.80
12309;DHT22;6217;48.150;17.142;2023-03-14T22:52:28;10.70;73.50
12309;DHT22;6217;48.150;17.142;2023-03-14T22:56:37;10.70;73.40
12309;DHT22;6217;48.150;17.142;2023-03-14T23:00:43;10.70;73.60
12309;DHT22;6217;48.150;17.142;2023-03-14T23:04:50;10.70;73.60
12309;DHT22;6217;48.150;17.142;2023-03-14T23:08:56;10.50;73.50
12309;DHT22;6217;48.150;17.142;2023-03-14T23:13:02;10.60;73.50
12309;DHT22;6217;48.150;17.142;2023-03-14T23:17:10;10.50;73.60
12309;DHT22;6217;48.150;17.142;2023-03-14T23:21:19;10.50;73.70
12309;DHT22;6217;48.150;17.142;2023-03-14T23:25:27;10.50;73.70
12309;DHT22;6217;48.150;17.142;2023-03-14T23:29:33;10.40;73.60
12309;DHT22;6217;48.150;17.142;2023-03-14T23:33:42;10.50;73.50
12309;DHT22;6217;48.150;17.142;2023-03-14T23:37:49;10.40;73.60
12309;DHT22;6217;48.150;17.142;2023-03-14T23:41:54;10.40;73.20
12309;DHT22;6217;48.150;17.142;2023-03-14T23:46:01;10.40;73.00
12309;DHT22;6217;48.150;17.142;2023-03-14T23:50:07;10.40;72.40
12309;DHT22;6217;48.150;17.142;2023-03-14T23:54:14;10.40;72.00
12309;DHT22;6217;48.150;17.142;2023-03-14T23:58:20;10.40;71.90
